EDT,Max TemperatureF,Mean TemperatureF,Min TemperatureF,Max Dew PointF,MeanDew PointF,Min DewpointF,Max Humidity, Mean Humidity, Min Humidity, Max Sea Level PressureIn, Mean Sea Level PressureIn, Min Sea Level PressureIn, Max VisibilityMiles, Mean VisibilityMiles, Min VisibilityMiles, Max Wind SpeedMPH, Mean Wind SpeedMPH, Max Gust SpeedMPH,PrecipitationIn, CloudCover, Events, WindDirDegrees
2013-10-1,80,68,56,62,59,56,100,75,50,30.13,30.08,30.04,10,6,0,10,2,16,0.00,4,Fog-Rain,237
2013-10-2,82,68,54,66,61,54,100,77,54,30.16,30.10,30.06,10,10,6,7,1,10,0.00,2,,169
2013-10-3,83,71,59,69,64,60,100,79,58,30.13,30.08,30.03,10,8,1,7,1,17,0.00,4,,192
2013-10-4,84,73,61,67,64,61,100,76,51,30.16,30.09,30.06,10,7,0,9,2,13,0.00,2,Fog,222
2013-10-5,85,73,60,71,65,61,100,78,55,30.12,30.06,29.97,10,8,4,8,1,13,0.00,4,,208
2013-10-6,87,75,62,67,63,59,100,70,40,29.96,29.87,29.75,10,9,6,15,4,25,0.00,3,,185
2013-10-7,74,60,45,60,50,42,100,72,44,30.15,29.95,29.75,10,9,4,23,7,31,0.22,6,Rain,258
2013-10-8,70,56,41,49,45,41,100,68,36,30.28,30.21,30.15,10,6,0,16,2,22,0.00,2,Fog,56
2013-10-9,74,58,42,50,45,40,100,65,29,30.27,30.21,30.16,10,7,0,9,1,12,0.00,3,Fog,40
2013-10-10,74,60,45,54,49,43,100,71,42,30.18,30.12,30.05,10,10,10,12,2,15,0.00,4,,260
2013-10-11,73,61,49,60,54,48,100,81,61,30.09,30.04,30.00,10,9,0,12,3,16,T,5,Fog,290
2013-10-12,67,62,56,59,57,55,100,87,73,30.14,30.09,30.03,10,9,6,6,1,21,0.00,7,,329
2013-10-13,72,65,57,64,60,57,100,84,68,30.26,30.20,30.14,10,7,0,8,1,14,T,8,Fog,324
2013-10-14,67,64,61,64,63,61,100,94,87,30.28,30.23,30.19,10,6,4,9,1,14,T,8,,346
2013-10-15,75,66,56,61,58,53,100,75,49,30.21,30.10,30.00,10,6,0,8,2,12,0.00,7,Fog,110
2013-10-16,70,64,57,63,58,52,100,82,63,29.99,29.96,29.93,10,8,2,12,3,15,0.05,6,Rain,201
2013-10-17,66,59,52,64,58,51,100,97,93,29.99,29.89,29.77,10,5,1,24,4,35,0.26,8,Rain,264
2013-10-18,64,53,42,52,46,41,100,73,46,30.09,30.03,29.99,10,8,0,10,2,13,0.00,4,Fog,223
2013-10-19,57,49,40,52,45,40,100,90,80,30.02,29.93,29.84,10,6,1,17,3,25,0.06,6,Rain,248
2013-10-20,61,50,38,44,40,36,100,70,39,30.12,30.08,30.04,10,7,0,9,2,13,0.00,2,Fog,213
2013-10-21,69,52,34,45,39,34,100,64,28,30.11,30.02,29.93,10,8,2,13,3,18,0.00,2,,225
2013-10-22,54,46,38,47,41,34,100,73,46,30.05,29.95,29.88,10,10,6,17,3,23,0.17,5,Rain,252
2013-10-23,48,43,37,45,40,37,100,93,86,30.05,29.86,29.74,10,5,0,17,6,25,0.20,8,Fog-Rain,262
2013-10-24,45,41,36,38,36,31,100,79,58,30.23,30.13,30.04,10,9,6,16,5,22,T,8,Rain,247
2013-10-25,47,38,29,36,32,28,100,77,53,30.43,30.36,30.24,10,10,7,13,4,16,0.00,6,,254
2013-10-26,53,40,27,32,27,24,100,68,35,30.34,30.16,30.00,10,9,7,18,6,25,0.00,3,,229
2013-10-27,61,49,37,41,37,30,100,70,39,30.12,30.08,30.04,10,10,10,12,3,17,0.00,3,,246
2013-10-28,61,48,34,52,44,34,100,79,57,30.27,30.21,30.12,10,10,9,6,1,16,0.00,6,,205
2013-10-29,65,56,47,52,49,47,100,78,56,30.36,30.30,30.23,10,6,0,8,1,10,0.00,7,Fog,299
2013-10-30,62,57,51,61,57,50,100,97,93,30.21,30.17,30.10,10,4,0,9,1,30,0.27,8,Fog-Rain,211
2013-10-31,73,66,58,59,56,52,100,77,53,30.08,29.87,29.53,10,9,4,24,7,33,0.04,7,Rain,162